sensor_id;sensor_type;location;lat;lon;timestamp;P1;durP1;ratioP1;P2;durP2;ratioP2
26335;SDS011;14047;50.936;4.654;2024-01-27T00:01:42;14.27;;;4.25;;
26335;SDS011;14047;50.936;4.654;2024-01-27T00:04:09;10.77;;;3.85;;
26335;SDS011;14047;50.936;4.654;2024-01-27T00:06:35;14.10;;;3.13;;
26335;SDS011;14047;50.936;4.654;2024-01-27T00:09:01;11.85;;;3.10;;
26335;SDS011;14047;50.936;4.654;2024-01-27T00:11:27;16.30;;;4.03;;
26335;SDS011;14047;50.936;4.654;2024-01-27T00:13:53;18.90;;;3.50;;
26335;SDS011;14047;50.936;4.654;2024-01-27T00:16:19;13.20;;;4.38;;
26335;SDS011;14047;50.936;4.654;2024-01-27T00:18:45;11.63;;;3.83;;
26335;SDS011;14047;50.936;4.654;2024-01-27T00:21:11;22.02;;;4.28;;
26335;SDS011;14047;50.936;4.654;2024-01-27T00:23:37;16.27;;;5.32;;
26335;SDS011;14047;50.936;4.654;2024-01-27T00:26:04;13.07;;;3.88;;
26335;SDS011;14047;50.936;4.654;2024-01-27T00:28:30;13.98;;;4.30;;
26335;SDS011;14047;50.936;4.654;2024-01-27T00:30:56;16.40;;;4.07;;
26335;SDS011;14047;50.936;4.654;2024-01-27T00:33:22;14.27;;;3.75;;
26335;SDS011;14047;50.936;4.654;2024-01-27T00:35:48;14.20;;;3.25;;
26335;SDS011;14047;50.936;4.654;2024-01-27T00:38:14;12.02;;;3.75;;
26335;SDS011;14047;50.936;4.654;2024-01-27T00:40:40;14.50;;;3.65;;
26335;SDS011;14047;50.936;4.654;2024-01-27T00:43:06;16.92;;;3.53;;
26335;SDS011;14047;50.936;4.654;2024-01-27T00:45:32;12.98;;;3.03;;
26335;SDS011;14047;50.936;4.654;2024-01-27T00:47:58;13.85;;;3.83;;
26335;SDS011;14047;50.936;4.654;2024-01-27T00:50:24;11.45;;;3.33;;
26335;SDS011;14047;50.936;4.654;2024-01-27T00:52:51;13.48;;;3.40;;
26335;SDS011;14047;50.936;4.654;2024-01-27T00:55:17;11.95;;;3.38;;
26335;SDS011;14047;50.936;4.654;2024-01-27T00:57:43;11.63;;;3.17;;
26335;SDS011;14047;50.936;4.654;2024-01-27T01:00:09;15.70;;;3.78;;
26335;SDS011;14047;50.936;4.654;2024-01-27T01:02:36;15.02;;;3.28;;
26335;SDS011;14047;50.936;4.654;2024-01-27T01:05:02;13.68;;;3.35;;
26335;SDS011;14047;50.936;4.654;2024-01-27T01:07:29;12.65;;;3.00;;
26335;SDS011;14047;50.936;4.654;2024-01-27T01:09:56;12.10;;;3.63;;
26335;SDS011;14047;50.936;4.654;2024-01-27T01:12:22;13.73;;;3.45;;
26335;SDS011;14047;50.936;4.654;2024-01-27T01:14:48;7.93;;;3.08;;
26335;SDS011;14047;50.936;4.654;2024-01-27T01:17:14;12.27;;;3.22;;
26335;SDS011;14047;50.936;4.654;2024-01-27T01:19:40;10.95;;;3.28;;
26335;SDS011;14047;50.936;4.654;2024-01-27T01:22:07;10.00;;;3.38;;
26335;SDS011;14047;50.936;4.654;2024-01-27T01:24:33;15.10;;;3.65;;
26335;SDS011;14047;50.936;4.654;2024-01-27T01:26:59;11.02;;;3.58;;
26335;SDS011;14047;50.936;4.654;2024-01-27T01:29:25;18.08;;;4.07;;
26335;SDS011;14047;50.936;4.654;2024-01-27T01:31:51;17.35;;;3.67;;
26335;SDS011;14047;50.936;4.654;2024-01-27T01:34:17;9.60;;;3.58;;
26335;SDS011;14047;50.936;4.654;2024-01-27T01:36:43;17.40;;;3.60;;
26335;SDS011;14047;50.936;4.654;2024-01-27T01:39:11;14.18;;;3.78;;
26335;SDS011;14047;50.936;4.654;2024-01-27T01:41:40;11.48;;;3.92;;
26335;SDS011;14047;50.936;4.654;2024-01-27T01:44:06;16.83;;;5.35;;
26335;SDS011;14047;50.936;4.654;2024-01-27T01:46:33;13.65;;;3.40;;
26335;SDS011;14047;50.936;4.654;2024-01-27T01:48:59;11.50;;;3.67;;
26335;SDS011;14047;50.936;4.654;2024-01-27T01:51:26;17.85;;;3.78;;
26335;SDS011;14047;50.936;4.654;2024-01-27T01:53:54;13.43;;;4.15;;
26335;SDS011;14047;50.936;4.654;2024-01-27T01:56:24;17.65;;;3.58;;
26335;SDS011;14047;50.936;4.654;2024-01-27T01:58:50;11.98;;;3.95;;
26335;SDS011;14047;50.936;4.654;2024-01-27T02:01:19;9.77;;;3.95;;
26335;SDS011;14047;50.936;4.654;2024-01-27T02:03:53;14.27;;;3.97;;
26335;SDS011;14047;50.936;4.654;2024-01-27T02:06:20;15.35;;;4.18;;
26335;SDS011;14047;50.936;4.654;2024-01-27T02:08:46;15.27;;;4.47;;
26335;SDS011;14047;50.936;4.654;2024-01-27T02:11:12;13.65;;;4.38;;
26335;SDS011;14047;50.936;4.654;2024-01-27T02:13:38;15.90;;;4.63;;
26335;SDS011;14047;50.936;4.654;2024-01-27T02:16:05;15.68;;;5.28;;
26335;SDS011;14047;50.936;4.654;2024-01-27T02:18:31;17.42;;;5.72;;
26335;SDS011;14047;50.936;4.654;2024-01-27T02:20:57;16.70;;;5.40;;
26335;SDS011;14047;50.936;4.654;2024-01-27T02:23:22;16.77;;;6.65;;
26335;SDS011;14047;50.936;4.654;2024-01-27T02:25:48;19.08;;;6.32;;
26335;SDS011;14047;50.936;4.654;2024-01-27T02:28:16;19.50;;;5.70;;
26335;SDS011;14047;50.936;4.654;2024-01-27T02:30:42;16.25;;;6.20;;
26335;SDS011;14047;50.936;4.654;2024-01-27T02:33:08;21.88;;;7.30;;
26335;SDS011;14047;50.936;4.654;2024-01-27T02:35:34;22.25;;;7.20;;
26335;SDS011;14047;50.936;4.654;2024-01-27T02:38:00;23.42;;;7.68;;
26335;SDS011;14047;50.936;4.654;2024-01-27T02:40:26;22.50;;;6.55;;
26335;SDS011;14047;50.936;4.654;2024-01-27T02:42:52;23.10;;;6.90;;
26335;SDS011;14047;50.936;4.654;2024-01-27T02:45:18;17.77;;;6.50;;
26335;SDS011;14047;50.936;4.654;2024-01-27T02:47:44;20.77;;;6.97;;
26335;SDS011;14047;50.936;4.654;2024-01-27T02:50:11;17.50;;;6.20;;
26335;SDS011;14047;50.936;4.654;2024-01-27T02:52:37;16.80;;;6.32;;
26335;SDS011;14047;50.936;4.654;2024-01-27T02:55:03;19.20;;;6.40;;
26335;SDS011;14047;50.936;4.654;2024-01-27T02:57:29;19.00;;;6.57;;
26335;SDS011;14047;50.936;4.654;2024-01-27T02:59:55;19.13;;;5.97;;
26335;SDS011;14047;50.936;4.654;2024-01-27T03:02:21;24.98;;;6.70;;
26335;SDS011;14047;50.936;4.654;2024-01-27T03:04:47;22.38;;;6.40;;
26335;SDS011;14047;50.936;4.654;2024-01-27T03:07:13;17.73;;;5.95;;
26335;SDS011;14047;50.936;4.654;2024-01-27T03:09:39;23.75;;;6.18;;
26335;SDS011;14047;50.936;4.654;2024-01-27T03:12:05;28.25;;;7.03;;
26335;SDS011;14047;50.936;4.654;2024-01-27T03:14:31;16.80;;;6.55;;
26335;SDS011;14047;50.936;4.654;2024-01-27T03:16:58;16.35;;;6.13;;
26335;SDS011;14047;50.936;4.654;2024-01-27T03:19:24;19.70;;;6.20;;
26335;SDS011;14047;50.936;4.654;2024-01-27T03:21:50;12.35;;;5.55;;
26335;SDS011;14047;50.936;4.654;2024-01-27T03:24:16;17.77;;;6.28;;
26335;SDS011;14047;50.936;4.654;2024-01-27T03:26:42;12.23;;;6.00;;
26335;SDS011;14047;50.936;4.654;2024-01-27T03:29:08;15.48;;;5.57;;
26335;SDS011;14047;50.936;4.654;2024-01-27T03:31:34;15.57;;;5.65;;
26335;SDS011;14047;50.936;4.654;2024-01-27T03:34:00;11.57;;;5.22;;
26335;SDS011;14047;50.936;4.654;2024-01-27T03:36:27;12.88;;;5.28;;
26335;SDS011;14047;50.936;4.654;2024-01-27T03:38:54;15.63;;;4.95;;
26335;SDS011;14047;50.936;4.654;2024-01-27T03:41:21;19.30;;;6.30;;
26335;SDS011;14047;50.936;4.654;2024-01-27T03:43:47;21.30;;;5.45;;
26335;SDS011;14047;50.936;4.654;2024-01-27T03:46:13;14.65;;;4.93;;
26335;SDS011;14047;50.936;4.654;2024-01-27T03:48:39;13.60;;;4.95;;
26335;SDS011;14047;50.936;4.654;2024-01-27T03:51:05;12.95;;;4.80;;
26335;SDS011;14047;50.936;4.654;2024-01-27T03:53:31;22.70;;;5.35;;
26335;SDS011;14047;50.936;4.654;2024-01-27T03:55:57;15.40;;;5.38;;
26335;SDS011;14047;50.936;4.654;2024-01-27T03:58:30;14.43;;;6.00;;
26335;SDS011;14047;50.936;4.654;2024-01-27T04:00:56;17.63;;;5.13;;
26335;SDS011;14047;50.936;4.654;2024-01-27T04:03:23;13.23;;;5.22;;
26335;SDS011;14047;50.936;4.654;2024-01-27T04:05:49;23.33;;;5.50;;
26335;SDS011;14047;50.936;4.654;2024-01-27T04:08:15;16.52;;;5.53;;
26335;SDS011;14047;50.936;4.654;2024-01-27T04:10:41;20.05;;;6.10;;
26335;SDS011;14047;50.936;4.654;2024-01-27T04:13:07;16.02;;;5.22;;
26335;SDS011;14047;50.936;4.654;2024-01-27T04:15:33;17.42;;;5.68;;
26335;SDS011;14047;50.936;4.654;2024-01-27T04:18:04;15.52;;;6.22;;
26335;SDS011;14047;50.936;4.654;2024-01-27T04:20:36;10.23;;;4.93;;
26335;SDS011;14047;50.936;4.654;2024-01-27T04:23:03;19.95;;;5.93;;
26335;SDS011;14047;50.936;4.654;2024-01-27T04:25:29;18.77;;;5.45;;
26335;SDS011;14047;50.936;4.654;2024-01-27T04:27:55;16.27;;;5.88;;
26335;SDS011;14047;50.936;4.654;2024-01-27T04:30:21;20.55;;;6.88;;
26335;SDS011;14047;50.936;4.654;2024-01-27T04:32:47;18.63;;;6.15;;
26335;SDS011;14047;50.936;4.654;2024-01-27T04:35:15;24.17;;;6.43;;
26335;SDS011;14047;50.936;4.654;2024-01-27T04:37:41;15.73;;;5.40;;
26335;SDS011;14047;50.936;4.654;2024-01-27T04:40:09;15.57;;;5.43;;
26335;SDS011;14047;50.936;4.654;2024-01-27T04:42:39;27.65;;;6.00;;
26335;SDS011;14047;50.936;4.654;2024-01-27T04:45:06;23.83;;;6.63;;
26335;SDS011;14047;50.936;4.654;2024-01-27T04:47:32;19.23;;;7.00;;
26335;SDS011;14047;50.936;4.654;2024-01-27T04:49:58;15.98;;;5.82;;
26335;SDS011;14047;50.936;4.654;2024-01-27T04:52:24;23.45;;;6.15;;
26335;SDS011;14047;50.936;4.654;2024-01-27T04:54:51;17.05;;;6.82;;
26335;SDS011;14047;50.936;4.654;2024-01-27T04:57:17;20.90;;;7.00;;
26335;SDS011;14047;50.936;4.654;2024-01-27T04:59:43;16.60;;;6.30;;
26335;SDS011;14047;50.936;4.654;2024-01-27T05:02:10;16.63;;;6.10;;
26335;SDS011;14047;50.936;4.654;2024-01-27T05:04:37;22.13;;;6.18;;
26335;SDS011;14047;50.936;4.654;2024-01-27T05:07:03;21.17;;;6.85;;
26335;SDS011;14047;50.936;4.654;2024-01-27T05:09:29;14.63;;;5.57;;
26335;SDS011;14047;50.936;4.654;2024-01-27T05:11:55;19.90;;;5.57;;
26335;SDS011;14047;50.936;4.654;2024-01-27T05:14:21;25.55;;;5.50;;
26335;SDS011;14047;50.936;4.654;2024-01-27T05:16:47;22.40;;;5.85;;
26335;SDS011;14047;50.936;4.654;2024-01-27T05:19:13;18.55;;;6.32;;
26335;SDS011;14047;50.936;4.654;2024-01-27T05:21:41;15.98;;;5.55;;
26335;SDS011;14047;50.936;4.654;2024-01-27T05:24:07;14.15;;;5.97;;
26335;SDS011;14047;50.936;4.654;2024-01-27T05:26:33;16.77;;;5.80;;
26335;SDS011;14047;50.936;4.654;2024-01-27T05:28:58;22.13;;;5.78;;
26335;SDS011;14047;50.936;4.654;2024-01-27T05:31:25;16.90;;;6.07;;
26335;SDS011;14047;50.936;4.654;2024-01-27T05:33:52;19.08;;;6.72;;
26335;SDS011;14047;50.936;4.654;2024-01-27T05:36:18;18.80;;;6.68;;
26335;SDS011;14047;50.936;4.654;2024-01-27T05:38:43;16.08;;;5.53;;
26335;SDS011;14047;50.936;4.654;2024-01-27T05:41:09;18.95;;;6.30;;
26335;SDS011;14047;50.936;4.654;2024-01-27T05:43:36;21.13;;;6.22;;
26335;SDS011;14047;50.936;4.654;2024-01-27T05:46:02;20.30;;;6.45;;
26335;SDS011;14047;50.936;4.654;2024-01-27T05:48:28;21.00;;;6.82;;
26335;SDS011;14047;50.936;4.654;2024-01-27T05:50:55;25.17;;;7.15;;
26335;SDS011;14047;50.936;4.654;2024-01-27T05:53:25;19.77;;;6.43;;
26335;SDS011;14047;50.936;4.654;2024-01-27T05:55:52;16.70;;;7.07;;
26335;SDS011;14047;50.936;4.654;2024-01-27T05:58:19;22.42;;;6.00;;
26335;SDS011;14047;50.936;4.654;2024-01-27T06:00:46;21.50;;;6.03;;
26335;SDS011;14047;50.936;4.654;2024-01-27T06:03:13;26.35;;;6.70;;
26335;SDS011;14047;50.936;4.654;2024-01-27T06:05:43;19.38;;;6.10;;
26335;SDS011;14047;50.936;4.654;2024-01-27T06:08:09;14.63;;;5.93;;
26335;SDS011;14047;50.936;4.654;2024-01-27T06:10:36;16.90;;;6.03;;
26335;SDS011;14047;50.936;4.654;2024-01-27T06:13:03;23.17;;;6.25;;
26335;SDS011;14047;50.936;4.654;2024-01-27T06:15:29;14.70;;;6.10;;
26335;SDS011;14047;50.936;4.654;2024-01-27T06:17:56;17.15;;;6.60;;
26335;SDS011;14047;50.936;4.654;2024-01-27T06:20:22;11.25;;;6.18;;
26335;SDS011;14047;50.936;4.654;2024-01-27T06:22:48;18.83;;;6.63;;
26335;SDS011;14047;50.936;4.654;2024-01-27T06:25:14;20.15;;;6.18;;
26335;SDS011;14047;50.936;4.654;2024-01-27T06:27:42;19.02;;;6.60;;
26335;SDS011;14047;50.936;4.654;2024-01-27T06:30:08;17.75;;;6.82;;
26335;SDS011;14047;50.936;4.654;2024-01-27T06:32:35;24.38;;;5.88;;
26335;SDS011;14047;50.936;4.654;2024-01-27T06:35:02;17.90;;;6.47;;
26335;SDS011;14047;50.936;4.654;2024-01-27T06:37:29;30.70;;;6.85;;
26335;SDS011;14047;50.936;4.654;2024-01-27T06:39:55;22.13;;;6.15;;
26335;SDS011;14047;50.936;4.654;2024-01-27T06:42:20;25.92;;;7.22;;
26335;SDS011;14047;50.936;4.654;2024-01-27T06:44:46;26.85;;;7.60;;
26335;SDS011;14047;50.936;4.654;2024-01-27T06:47:13;12.88;;;5.90;;
26335;SDS011;14047;50.936;4.654;2024-01-27T06:49:39;21.90;;;6.63;;
26335;SDS011;14047;50.936;4.654;2024-01-27T06:52:05;23.15;;;7.32;;
26335;SDS011;14047;50.936;4.654;2024-01-27T06:54:31;18.75;;;7.20;;
26335;SDS011;14047;50.936;4.654;2024-01-27T06:56:59;20.33;;;7.00;;
26335;SDS011;14047;50.936;4.654;2024-01-27T06:59:26;19.52;;;6.30;;
26335;SDS011;14047;50.936;4.654;2024-01-27T07:01:52;19.73;;;7.72;;
26335;SDS011;14047;50.936;4.654;2024-01-27T07:04:17;15.88;;;6.88;;
26335;SDS011;14047;50.936;4.654;2024-01-27T07:06:43;21.98;;;7.03;;
26335;SDS011;14047;50.936;4.654;2024-01-27T07:09:11;18.50;;;7.60;;
26335;SDS011;14047;50.936;4.654;2024-01-27T07:11:37;18.45;;;6.50;;
26335;SDS011;14047;50.936;4.654;2024-01-27T07:14:03;25.02;;;7.03;;
26335;SDS011;14047;50.936;4.654;2024-01-27T07:16:29;24.55;;;6.68;;
26335;SDS011;14047;50.936;4.654;2024-01-27T07:18:57;21.88;;;7.35;;
26335;SDS011;14047;50.936;4.654;2024-01-27T07:21:24;24.77;;;6.40;;
26335;SDS011;14047;50.936;4.654;2024-01-27T07:23:50;17.10;;;6.82;;
26335;SDS011;14047;50.936;4.654;2024-01-27T07:26:18;27.70;;;6.70;;
26335;SDS011;14047;50.936;4.654;2024-01-27T07:28:44;24.45;;;7.45;;
26335;SDS011;14047;50.936;4.654;2024-01-27T07:31:10;17.35;;;7.88;;
26335;SDS011;14047;50.936;4.654;2024-01-27T07:33:38;25.45;;;6.68;;
26335;SDS011;14047;50.936;4.654;2024-01-27T07:36:04;21.65;;;7.45;;
26335;SDS011;14047;50.936;4.654;2024-01-27T07:38:30;26.17;;;7.07;;
26335;SDS011;14047;50.936;4.654;2024-01-27T07:40:56;17.40;;;7.22;;
26335;SDS011;14047;50.936;4.654;2024-01-27T07:43:27;23.50;;;6.63;;
26335;SDS011;14047;50.936;4.654;2024-01-27T07:45:52;19.60;;;6.25;;
26335;SDS011;14047;50.936;4.654;2024-01-27T07:48:19;18.52;;;6.60;;
26335;SDS011;14047;50.936;4.654;2024-01-27T07:50:45;21.30;;;6.93;;
26335;SDS011;14047;50.936;4.654;2024-01-27T07:53:14;15.43;;;6.40;;
26335;SDS011;14047;50.936;4.654;2024-01-27T07:55:40;20.80;;;7.25;;
26335;SDS011;14047;50.936;4.654;2024-01-27T07:58:06;21.20;;;5.68;;
26335;SDS011;14047;50.936;4.654;2024-01-27T08:00:32;16.98;;;6.82;;
26335;SDS011;14047;50.936;4.654;2024-01-27T08:02:59;18.98;;;7.78;;
26335;SDS011;14047;50.936;4.654;2024-01-27T08:05:25;28.38;;;7.38;;
26335;SDS011;14047;50.936;4.654;2024-01-27T08:07:53;20.63;;;7.75;;
26335;SDS011;14047;50.936;4.654;2024-01-27T08:10:19;19.50;;;6.78;;
26335;SDS011;14047;50.936;4.654;2024-01-27T08:12:45;27.85;;;6.95;;
26335;SDS011;14047;50.936;4.654;2024-01-27T08:15:19;27.08;;;6.53;;
26335;SDS011;14047;50.936;4.654;2024-01-27T08:17:45;19.25;;;5.97;;
26335;SDS011;14047;50.936;4.654;2024-01-27T08:20:11;22.15;;;6.78;;
26335;SDS011;14047;50.936;4.654;2024-01-27T08:22:38;20.35;;;6.07;;
26335;SDS011;14047;50.936;4.654;2024-01-27T08:25:05;22.48;;;6.68;;
26335;SDS011;14047;50.936;4.654;2024-01-27T08:27:31;14.35;;;5.97;;
26335;SDS011;14047;50.936;4.654;2024-01-27T08:29:57;17.27;;;6.53;;
26335;SDS011;14047;50.936;4.654;2024-01-27T08:32:23;19.60;;;6.20;;
26335;SDS011;14047;50.936;4.654;2024-01-27T08:34:49;19.17;;;5.95;;
26335;SDS011;14047;50.936;4.654;2024-01-27T08:37:17;13.70;;;5.60;;
26335;SDS011;14047;50.936;4.654;2024-01-27T08:39:45;15.05;;;5.80;;
26335;SDS011;14047;50.936;4.654;2024-01-27T08:42:11;18.00;;;6.18;;
26335;SDS011;14047;50.936;4.654;2024-01-27T08:44:37;21.98;;;6.15;;
26335;SDS011;14047;50.936;4.654;2024-01-27T08:47:04;25.02;;;6.32;;
26335;SDS011;14047;50.936;4.654;2024-01-27T08:49:31;17.75;;;5.30;;
26335;SDS011;14047;50.936;4.654;2024-01-27T08:51:57;15.82;;;6.05;;
26335;SDS011;14047;50.936;4.654;2024-01-27T08:54:23;21.17;;;6.55;;
26335;SDS011;14047;50.936;4.654;2024-01-27T08:56:49;20.27;;;5.80;;
26335;SDS011;14047;50.936;4.654;2024-01-27T08:59:15;14.00;;;5.72;;
26335;SDS011;14047;50.936;4.654;2024-01-27T09:01:42;18.63;;;5.63;;
26335;SDS011;14047;50.936;4.654;2024-01-27T09:04:08;34.20;;;6.15;;
26335;SDS011;14047;50.936;4.654;2024-01-27T09:06:34;18.50;;;6.93;;
26335;SDS011;14047;50.936;4.654;2024-01-27T09:09:00;22.55;;;5.65;;
26335;SDS011;14047;50.936;4.654;2024-01-27T09:11:26;29.63;;;5.13;;
26335;SDS011;14047;50.936;4.654;2024-01-27T09:13:55;17.02;;;5.00;;
26335;SDS011;14047;50.936;4.654;2024-01-27T09:16:22;21.42;;;4.97;;
26335;SDS011;14047;50.936;4.654;2024-01-27T09:18:48;21.58;;;4.95;;
26335;SDS011;14047;50.936;4.654;2024-01-27T09:21:18;18.10;;;4.80;;
26335;SDS011;14047;50.936;4.654;2024-01-27T09:23:48;19.77;;;5.32;;
26335;SDS011;14047;50.936;4.654;2024-01-27T09:26:14;24.10;;;6.22;;
26335;SDS011;14047;50.936;4.654;2024-01-27T09:28:43;14.27;;;5.22;;
26335;SDS011;14047;50.936;4.654;2024-01-27T09:31:11;16.65;;;5.15;;
26335;SDS011;14047;50.936;4.654;2024-01-27T09:33:37;18.95;;;5.70;;
26335;SDS011;14047;50.936;4.654;2024-01-27T09:36:03;27.23;;;6.15;;
26335;SDS011;14047;50.936;4.654;2024-01-27T09:38:29;16.35;;;5.13;;
26335;SDS011;14047;50.936;4.654;2024-01-27T09:40:55;32.60;;;5.75;;
26335;SDS011;14047;50.936;4.654;2024-01-27T09:43:21;29.17;;;6.18;;
26335;SDS011;14047;50.936;4.654;2024-01-27T09:45:50;22.08;;;5.28;;
26335;SDS011;14047;50.936;4.654;2024-01-27T09:48:16;22.92;;;6.10;;
26335;SDS011;14047;50.936;4.654;2024-01-27T09:50:44;19.00;;;4.95;;
26335;SDS011;14047;50.936;4.654;2024-01-27T09:53:14;17.38;;;4.70;;
26335;SDS011;14047;50.936;4.654;2024-01-27T09:55:40;19.63;;;5.20;;
26335;SDS011;14047;50.936;4.654;2024-01-27T09:58:06;21.10;;;5.38;;
26335;SDS011;14047;50.936;4.654;2024-01-27T10:00:33;20.65;;;5.53;;
26335;SDS011;14047;50.936;4.654;2024-01-27T10:03:02;23.20;;;4.80;;
26335;SDS011;14047;50.936;4.654;2024-01-27T10:05:30;12.15;;;4.53;;
26335;SDS011;14047;50.936;4.654;2024-01-27T10:07:57;14.98;;;4.47;;
26335;SDS011;14047;50.936;4.654;2024-01-27T10:10:23;16.27;;;5.50;;
26335;SDS011;14047;50.936;4.654;2024-01-27T10:12:49;20.85;;;4.95;;
26335;SDS011;14047;50.936;4.654;2024-01-27T10:15:19;25.25;;;5.22;;
26335;SDS011;14047;50.936;4.654;2024-01-27T10:17:46;19.13;;;3.80;;
26335;SDS011;14047;50.936;4.654;2024-01-27T10:20:12;26.27;;;4.28;;
26335;SDS011;14047;50.936;4.654;2024-01-27T10:22:41;14.18;;;3.47;;
26335;SDS011;14047;50.936;4.654;2024-01-27T10:25:08;11.05;;;3.35;;
26335;SDS011;14047;50.936;4.654;2024-01-27T10:27:35;15.55;;;3.75;;
26335;SDS011;14047;50.936;4.654;2024-01-27T10:30:01;14.00;;;3.70;;
26335;SDS011;14047;50.936;4.654;2024-01-27T10:32:30;12.15;;;3.83;;
26335;SDS011;14047;50.936;4.654;2024-01-27T10:35:05;17.65;;;3.53;;
26335;SDS011;14047;50.936;4.654;2024-01-27T10:37:38;14.35;;;3.25;;
26335;SDS011;14047;50.936;4.654;2024-01-27T10:40:08;14.27;;;4.10;;
26335;SDS011;14047;50.936;4.654;2024-01-27T10:42:35;15.25;;;3.28;;
26335;SDS011;14047;50.936;4.654;2024-01-27T10:45:03;20.05;;;3.85;;
26335;SDS011;14047;50.936;4.654;2024-01-27T10:47:31;11.95;;;3.83;;
26335;SDS011;14047;50.936;4.654;2024-01-27T10:49:58;14.15;;;3.60;;
26335;SDS011;14047;50.936;4.654;2024-01-27T10:52:29;21.13;;;4.50;;
26335;SDS011;14047;50.936;4.654;2024-01-27T10:55:01;12.35;;;3.85;;
26335;SDS011;14047;50.936;4.654;2024-01-27T10:57:29;12.10;;;3.78;;
26335;SDS011;14047;50.936;4.654;2024-01-27T10:59:57;15.40;;;3.78;;
26335;SDS011;14047;50.936;4.654;2024-01-27T11:02:23;12.93;;;3.58;;
26335;SDS011;14047;50.936;4.654;2024-01-27T11:04:50;22.42;;;3.90;;
26335;SDS011;14047;50.936;4.654;2024-01-27T11:07:20;15.23;;;3.80;;
26335;SDS011;14047;50.936;4.654;2024-01-27T11:09:48;21.25;;;3.70;;
26335;SDS011;14047;50.936;4.654;2024-01-27T11:12:15;22.10;;;3.90;;
26335;SDS011;14047;50.936;4.654;2024-01-27T11:14:43;15.73;;;4.03;;
26335;SDS011;14047;50.936;4.654;2024-01-27T11:17:10;15.30;;;3.92;;
26335;SDS011;14047;50.936;4.654;2024-01-27T11:19:39;23.15;;;5.25;;
26335;SDS011;14047;50.936;4.654;2024-01-27T11:22:05;19.48;;;4.28;;
26335;SDS011;14047;50.936;4.654;2024-01-27T11:24:31;12.73;;;3.55;;
26335;SDS011;14047;50.936;4.654;2024-01-27T11:27:01;23.40;;;4.70;;
26335;SDS011;14047;50.936;4.654;2024-01-27T11:29:31;10.60;;;3.22;;
26335;SDS011;14047;50.936;4.654;2024-01-27T11:32:02;18.10;;;3.83;;
26335;SDS011;14047;50.936;4.654;2024-01-27T11:34:40;19.27;;;4.10;;
26335;SDS011;14047;50.936;4.654;2024-01-27T11:37:11;14.48;;;3.10;;
26335;SDS011;14047;50.936;4.654;2024-01-27T11:39:37;9.75;;;3.33;;
26335;SDS011;14047;50.936;4.654;2024-01-27T11:42:07;12.80;;;3.20;;
26335;SDS011;14047;50.936;4.654;2024-01-27T11:44:38;9.95;;;3.17;;
26335;SDS011;14047;50.936;4.654;2024-01-27T11:47:05;13.80;;;3.55;;
26335;SDS011;14047;50.936;4.654;2024-01-27T11:49:38;13.88;;;3.88;;
26335;SDS011;14047;50.936;4.654;2024-01-27T11:52:06;11.02;;;3.45;;
26335;SDS011;14047;50.936;4.654;2024-01-27T11:54:32;10.73;;;2.65;;
26335;SDS011;14047;50.936;4.654;2024-01-27T11:56:58;11.07;;;2.72;;
26335;SDS011;14047;50.936;4.654;2024-01-27T11:59:24;11.55;;;3.42;;
26335;SDS011;14047;50.936;4.654;2024-01-27T12:01:50;10.18;;;3.88;;
26335;SDS011;14047;50.936;4.654;2024-01-27T12:04:16;16.08;;;3.10;;
26335;SDS011;14047;50.936;4.654;2024-01-27T12:06:43;10.90;;;2.92;;
26335;SDS011;14047;50.936;4.654;2024-01-27T12:09:09;14.68;;;2.85;;
26335;SDS011;14047;50.936;4.654;2024-01-27T12:11:40;14.13;;;3.60;;
26335;SDS011;14047;50.936;4.654;2024-01-27T12:14:09;15.80;;;3.15;;
26335;SDS011;14047;50.936;4.654;2024-01-27T12:16:34;8.85;;;3.13;;
26335;SDS011;14047;50.936;4.654;2024-01-27T12:19:01;10.95;;;2.65;;
26335;SDS011;14047;50.936;4.654;2024-01-27T12:21:27;15.57;;;2.90;;
26335;SDS011;14047;50.936;4.654;2024-01-27T12:23:57;9.65;;;2.78;;
26335;SDS011;14047;50.936;4.654;2024-01-27T12:26:30;10.50;;;2.22;;
26335;SDS011;14047;50.936;4.654;2024-01-27T12:28:56;10.05;;;2.28;;
26335;SDS011;14047;50.936;4.654;2024-01-27T12:31:23;7.63;;;2.40;;
26335;SDS011;14047;50.936;4.654;2024-01-27T12:33:50;10.60;;;2.53;;
26335;SDS011;14047;50.936;4.654;2024-01-27T12:36:21;8.55;;;2.08;;
26335;SDS011;14047;50.936;4.654;2024-01-27T12:38:57;10.38;;;2.75;;
26335;SDS011;14047;50.936;4.654;2024-01-27T12:41:28;8.07;;;2.42;;
26335;SDS011;14047;50.936;4.654;2024-01-27T12:43:55;10.00;;;2.70;;
26335;SDS011;14047;50.936;4.654;2024-01-27T12:46:21;11.10;;;2.55;;
26335;SDS011;14047;50.936;4.654;2024-01-27T12:48:47;13.57;;;2.60;;
26335;SDS011;14047;50.936;4.654;2024-01-27T12:51:14;9.02;;;2.25;;
26335;SDS011;14047;50.936;4.654;2024-01-27T12:53:40;9.23;;;2.35;;
26335;SDS011;14047;50.936;4.654;2024-01-27T12:56:12;9.82;;;2.70;;
26335;SDS011;14047;50.936;4.654;2024-01-27T12:58:40;10.48;;;2.53;;
26335;SDS011;14047;50.936;4.654;2024-01-27T13:01:07;12.68;;;3.05;;
26335;SDS011;14047;50.936;4.654;2024-01-27T13:03:34;11.95;;;2.55;;
26335;SDS011;14047;50.936;4.654;2024-01-27T13:06:00;11.45;;;2.90;;
26335;SDS011;14047;50.936;4.654;2024-01-27T13:08:27;12.63;;;3.10;;
26335;SDS011;14047;50.936;4.654;2024-01-27T13:10:54;7.55;;;1.88;;
26335;SDS011;14047;50.936;4.654;2024-01-27T13:13:20;10.57;;;2.30;;
26335;SDS011;14047;50.936;4.654;2024-01-27T13:15:46;9.93;;;2.10;;
26335;SDS011;14047;50.936;4.654;2024-01-27T13:18:12;11.82;;;2.85;;
26335;SDS011;14047;50.936;4.654;2024-01-27T13:20:38;5.25;;;2.00;;
26335;SDS011;14047;50.936;4.654;2024-01-27T13:23:06;8.63;;;2.40;;
26335;SDS011;14047;50.936;4.654;2024-01-27T13:25:32;13.55;;;2.70;;
26335;SDS011;14047;50.936;4.654;2024-01-27T13:27:58;5.18;;;1.88;;
26335;SDS011;14047;50.936;4.654;2024-01-27T13:30:24;9.77;;;2.25;;
26335;SDS011;14047;50.936;4.654;2024-01-27T13:32:52;6.05;;;1.67;;
26335;SDS011;14047;50.936;4.654;2024-01-27T13:35:18;12.15;;;2.55;;
26335;SDS011;14047;50.936;4.654;2024-01-27T13:37:44;11.63;;;2.70;;
26335;SDS011;14047;50.936;4.654;2024-01-27T13:40:11;4.50;;;1.65;;
26335;SDS011;14047;50.936;4.654;2024-01-27T13:42:37;9.82;;;1.85;;
26335;SDS011;14047;50.936;4.654;2024-01-27T13:45:03;13.25;;;2.13;;
26335;SDS011;14047;50.936;4.654;2024-01-27T13:47:30;5.15;;;1.83;;
26335;SDS011;14047;50.936;4.654;2024-01-27T13:49:56;6.30;;;1.77;;
26335;SDS011;14047;50.936;4.654;2024-01-27T13:52:23;6.80;;;1.60;;
26335;SDS011;14047;50.936;4.654;2024-01-27T13:54:50;6.47;;;1.70;;
26335;SDS011;14047;50.936;4.654;2024-01-27T13:57:16;7.38;;;1.80;;
26335;SDS011;14047;50.936;4.654;2024-01-27T13:59:43;5.00;;;1.80;;
26335;SDS011;14047;50.936;4.654;2024-01-27T14:02:09;7.78;;;1.70;;
26335;SDS011;14047;50.936;4.654;2024-01-27T14:04:35;6.03;;;1.80;;
26335;SDS011;14047;50.936;4.654;2024-01-27T14:07:02;9.40;;;2.13;;
26335;SDS011;14047;50.936;4.654;2024-01-27T14:09:32;8.82;;;1.90;;
26335;SDS011;14047;50.936;4.654;2024-01-27T14:11:58;7.32;;;1.77;;
26335;SDS011;14047;50.936;4.654;2024-01-27T14:14:24;6.93;;;1.70;;
26335;SDS011;14047;50.936;4.654;2024-01-27T14:16:50;4.07;;;1.65;;
26335;SDS011;14047;50.936;4.654;2024-01-27T14:19:16;14.10;;;2.22;;
26335;SDS011;14047;50.936;4.654;2024-01-27T14:21:42;5.43;;;1.80;;
26335;SDS011;14047;50.936;4.654;2024-01-27T14:24:08;8.43;;;1.85;;
26335;SDS011;14047;50.936;4.654;2024-01-27T14:26:34;11.52;;;1.83;;
26335;SDS011;14047;50.936;4.654;2024-01-27T14:29:00;5.78;;;1.35;;
26335;SDS011;14047;50.936;4.654;2024-01-27T14:31:26;7.55;;;1.73;;
26335;SDS011;14047;50.936;4.654;2024-01-27T14:33:52;9.13;;;1.48;;